createdAt,value
2017-10-22T00:03:01.797Z,1.43
2017-10-22T00:06:27.201Z,2.00
2017-10-22T00:09:53.348Z,1.37
2017-10-22T00:13:19.725Z,1.63
2017-10-22T00:16:45.237Z,1.57
2017-10-22T00:20:11.230Z,1.43
2017-10-22T00:23:37.662Z,1.80
2017-10-22T00:27:03.153Z,2.10
2017-10-22T00:30:28.678Z,1.77
2017-10-22T00:33:54.995Z,1.60
2017-10-22T00:37:20.397Z,1.30
2017-10-22T00:40:46.537Z,1.63
2017-10-22T00:44:12.003Z,1.60
2017-10-22T00:47:37.725Z,1.67
2017-10-22T00:51:04.013Z,2.33
2017-10-22T00:54:29.245Z,2.07
2017-10-22T00:57:55.804Z,1.60
2017-10-22T01:01:23.192Z,1.47
2017-10-22T01:04:48.691Z,1.53
2017-10-22T01:08:14.077Z,1.93
2017-10-22T01:11:40.437Z,1.47
2017-10-22T01:15:06.869Z,1.40
2017-10-22T01:18:32.183Z,1.53
2017-10-22T01:21:58.459Z,2.13
2017-10-22T01:25:24.056Z,1.33
2017-10-22T01:28:51.400Z,1.67
2017-10-22T01:32:16.908Z,1.63
2017-10-22T01:35:50.347Z,1.07
2017-10-22T01:39:21.788Z,1.50
2017-10-22T01:42:47.495Z,1.43
2017-10-22T01:46:14.181Z,2.00
2017-10-22T01:49:40.233Z,1.30
2017-10-22T01:53:05.721Z,1.47
2017-10-22T01:56:33.573Z,1.40
2017-10-22T01:59:59.751Z,1.47
2017-10-22T02:03:27.482Z,1.40
2017-10-22T02:06:54.476Z,1.30
2017-10-22T02:10:20.179Z,1.20
2017-10-22T02:13:48.648Z,1.13
2017-10-22T02:17:14.492Z,1.60
2017-10-22T02:20:39.929Z,1.73
2017-10-22T02:24:05.820Z,2.10
2017-10-22T02:27:33.644Z,1.60
2017-10-22T02:31:00.207Z,1.37
2017-10-22T02:34:26.125Z,1.53
2017-10-22T02:37:51.941Z,1.20
2017-10-22T02:41:17.566Z,1.03
2017-10-22T02:44:43.603Z,1.27
2017-10-22T02:48:09.310Z,1.83
2017-10-22T02:51:35.033Z,1.53
2017-10-22T02:55:00.658Z,1.37
2017-10-22T02:58:26.421Z,1.50
2017-10-22T03:01:52.127Z,1.37
2017-10-22T03:05:17.953Z,1.70
2017-10-22T03:08:44.777Z,1.10
2017-10-22T03:12:10.753Z,1.47
2017-10-22T03:15:36.340Z,0.93
2017-10-22T03:19:04.070Z,1.37
2017-10-22T03:22:29.756Z,1.87
2017-10-22T03:25:56.989Z,1.40
2017-10-22T03:29:22.690Z,1.60
2017-10-22T03:32:48.277Z,1.50
2017-10-22T03:36:13.615Z,1.33
2017-10-22T03:39:39.570Z,1.10
2017-10-22T03:43:05.147Z,0.90
2017-10-22T03:46:30.549Z,1.07
2017-10-22T03:49:56.429Z,1.60
2017-10-22T03:53:21.958Z,1.30
2017-10-22T03:56:47.345Z,1.77
2017-10-22T04:00:13.635Z,1.50
2017-10-22T04:03:39.730Z,1.27
2017-10-22T04:07:05.257Z,1.43
2017-10-22T04:10:31.137Z,1.97
2017-10-22T04:13:56.599Z,0.93
2017-10-22T04:17:22.338Z,1.10
2017-10-22T04:20:48.394Z,1.50
2017-10-22T04:24:13.761Z,1.67
2017-10-22T04:27:39.154Z,1.27
2017-10-22T04:31:04.497Z,1.87
2017-10-22T04:34:30.047Z,2.17
2017-10-22T04:37:55.622Z,1.40
2017-10-22T04:41:21.777Z,1.07
2017-10-22T04:44:47.087Z,1.50
2017-10-22T04:48:12.509Z,1.17
2017-10-22T04:51:38.642Z,1.93
2017-10-22T04:55:04.045Z,1.03
2017-10-22T04:58:29.461Z,1.60
2017-10-22T05:01:58.052Z,1.63
2017-10-22T05:05:24.365Z,1.50
2017-10-22T05:08:49.713Z,1.43
2017-10-22T05:12:15.653Z,1.67
2017-10-22T05:15:41.757Z,1.63
2017-10-22T05:19:07.133Z,1.40
2017-10-22T05:22:34.662Z,1.40
2017-10-22T05:26:00.056Z,1.30
2017-10-22T05:29:25.577Z,2.33
2017-10-22T05:32:50.909Z,1.70
2017-10-22T05:36:16.486Z,1.30
2017-10-22T05:39:42.385Z,1.43
2017-10-22T05:43:07.878Z,1.67
2017-10-22T05:46:34.885Z,1.53
2017-10-22T05:50:00.360Z,1.17
2017-10-22T05:53:25.855Z,1.60
2017-10-22T05:56:51.401Z,1.53
2017-10-22T06:00:17.522Z,1.40
2017-10-22T06:03:43.017Z,1.53
2017-10-22T06:07:08.678Z,1.20
2017-10-22T06:10:34.745Z,1.40
2017-10-22T06:14:00.126Z,1.40
2017-10-22T06:17:26.070Z,1.30
2017-10-22T06:20:51.544Z,1.60
2017-10-22T06:24:17.013Z,1.37
2017-10-22T06:27:43.593Z,1.00
2017-10-22T06:31:09.050Z,0.80
2017-10-22T06:34:34.401Z,0.93
2017-10-22T06:38:00.416Z,1.20
2017-10-22T06:41:25.920Z,1.17
2017-10-22T06:44:52.289Z,0.93
2017-10-22T06:48:19.297Z,0.77
2017-10-22T06:51:44.898Z,1.30
2017-10-22T06:58:40.284Z,1.13
2017-10-22T07:02:06.126Z,1.37
2017-10-22T07:05:32.147Z,0.87
2017-10-22T07:08:57.648Z,1.10
2017-10-22T07:12:28.018Z,0.80
2017-10-22T07:15:53.658Z,0.90
2017-10-22T07:22:49.244Z,1.37
2017-10-22T07:26:14.748Z,0.87
2017-10-22T07:29:41.419Z,0.83
2017-10-22T07:33:07.628Z,0.97
2017-10-22T07:36:33.226Z,1.10
2017-10-22T07:39:59.242Z,1.00
2017-10-22T07:43:24.758Z,0.90
2017-10-22T07:46:50.341Z,2.83
2017-10-22T07:50:29.674Z,8.30
2017-10-22T07:53:55.502Z,10.10
2017-10-22T07:57:21.162Z,10.03
2017-10-22T08:00:47.175Z,7.77
2017-10-22T08:07:42.585Z,7.03
2017-10-22T08:11:08.226Z,6.13
2017-10-22T08:14:34.030Z,6.90
2017-10-22T08:17:59.388Z,4.97
2017-10-22T08:21:25.132Z,5.07
2017-10-22T08:24:50.609Z,4.80
2017-10-22T08:28:16.214Z,4.90
2017-10-22T08:31:43.067Z,6.37
2017-10-22T08:35:10.456Z,4.97
2017-10-22T08:38:36.100Z,5.03
2017-10-22T08:42:02.204Z,5.57
2017-10-22T08:45:27.610Z,5.37
2017-10-22T08:48:53.068Z,5.53
2017-10-22T08:52:21.393Z,4.93
2017-10-22T08:55:46.708Z,5.50
2017-10-22T08:59:11.864Z,4.57
2017-10-22T09:02:38.300Z,4.73
2017-10-22T09:06:03.538Z,4.03
2017-10-22T09:09:28.716Z,4.63
2017-10-22T09:13:00.513Z,4.07
2017-10-22T09:16:25.705Z,5.03
2017-10-22T09:19:54.332Z,4.70
2017-10-22T09:23:19.615Z,4.27
2017-10-22T09:26:45.595Z,6.53
2017-10-22T09:30:12.644Z,9.50
2017-10-22T09:33:37.875Z,9.20
2017-10-22T09:37:03.165Z,9.37
2017-10-22T09:40:28.336Z,7.80
2017-10-22T09:43:54.264Z,8.07
2017-10-22T09:47:21.251Z,6.23
2017-10-22T09:50:46.465Z,5.30
2017-10-22T09:54:11.636Z,5.67
2017-10-22T09:57:37.921Z,4.93
2017-10-22T10:01:03.812Z,4.73
2017-10-22T10:04:30.136Z,4.67
2017-10-22T10:11:53.370Z,3.93
2017-10-22T10:15:22.097Z,3.57
2017-10-22T10:18:50.361Z,3.33
2017-10-22T10:22:23.934Z,3.67
2017-10-22T10:25:49.533Z,2.40
2017-10-22T10:29:14.896Z,3.40
2017-10-22T10:32:41.411Z,2.53
2017-10-22T10:36:06.812Z,2.63
2017-10-22T10:39:32.260Z,3.10
2017-10-22T10:43:00.005Z,2.93
2017-10-22T10:46:26.000Z,2.43
2017-10-22T10:49:51.300Z,2.83
2017-10-22T10:53:19.155Z,2.40
2017-10-22T10:56:44.508Z,2.53
2017-10-22T11:00:11.804Z,2.00
2017-10-22T11:03:37.270Z,1.90
2017-10-22T11:07:02.491Z,2.13
2017-10-22T11:10:28.021Z,2.47
2017-10-22T11:13:54.189Z,1.90
2017-10-22T11:17:21.920Z,2.30
2017-10-22T11:20:47.381Z,2.07
2017-10-22T11:28:02.001Z,1.63
2017-10-22T11:31:28.241Z,1.97
2017-10-22T11:34:54.951Z,1.87
2017-10-22T11:38:20.686Z,2.00
2017-10-22T11:41:46.375Z,1.73
2017-10-22T11:45:13.656Z,1.90
2017-10-22T11:48:38.829Z,2.00
2017-10-22T11:52:04.043Z,2.23
2017-10-22T11:55:45.404Z,1.43
2017-10-22T11:59:11.580Z,2.27
2017-10-22T12:02:37.535Z,1.70
2017-10-22T12:06:14.120Z,1.50
2017-10-22T12:09:41.130Z,1.53
2017-10-22T12:13:07.229Z,1.93
2017-10-22T12:16:34.304Z,1.90
2017-10-22T12:20:00.021Z,1.50
2017-10-22T12:23:26.077Z,2.50
2017-10-22T12:26:53.132Z,1.43
2017-10-22T12:30:21.197Z,2.30
2017-10-22T12:33:59.770Z,1.20
2017-10-22T12:37:26.430Z,1.37
2017-10-22T12:40:55.658Z,1.43
2017-10-22T12:44:24.726Z,1.87
2017-10-22T12:47:50.143Z,1.50
2017-10-22T12:51:17.809Z,1.90
2017-10-22T12:54:44.189Z,1.30
2017-10-22T12:58:10.196Z,2.53
2017-10-22T13:01:41.392Z,1.30
2017-10-22T13:05:20.854Z,2.10
2017-10-22T13:08:48.020Z,1.43
2017-10-22T13:12:18.901Z,1.57
2017-10-22T13:15:45.793Z,1.47
2017-10-22T13:19:20.012Z,1.50
2017-10-22T13:22:45.543Z,1.37
2017-10-22T13:26:11.641Z,1.60
2017-10-22T13:29:38.390Z,1.50
2017-10-22T13:36:57.221Z,1.40
2017-10-22T13:40:25.544Z,1.30
2017-10-22T13:43:51.943Z,1.73
2017-10-22T13:47:18.132Z,1.40
2017-10-22T13:50:55.414Z,1.23
2017-10-22T13:54:22.510Z,1.33
2017-10-22T13:57:47.853Z,1.53
2017-10-22T14:01:14.545Z,1.30
2017-10-22T14:04:40.648Z,1.97
2017-10-22T14:08:06.000Z,1.30
2017-10-22T14:11:37.406Z,1.67
2017-10-22T14:15:03.787Z,1.33
2017-10-22T14:18:30.343Z,1.90
2017-10-22T14:22:02.960Z,1.10
2017-10-22T14:25:28.419Z,1.47
2017-10-22T14:28:54.944Z,1.80
2017-10-22T14:32:25.615Z,1.80
2017-10-22T14:35:52.812Z,1.30
2017-10-22T14:39:19.648Z,2.07
2017-10-22T14:42:47.894Z,2.20
2017-10-22T14:46:15.597Z,2.23
2017-10-22T14:49:43.237Z,2.30
2017-10-22T14:53:09.206Z,2.50
2017-10-22T14:56:37.391Z,2.47
2017-10-22T15:00:06.144Z,2.17
2017-10-22T15:03:48.624Z,1.70
2017-10-22T15:07:25.720Z,1.97
2017-10-22T15:11:00.268Z,2.20
2017-10-22T15:14:26.212Z,1.63
2017-10-22T15:17:59.600Z,1.93
2017-10-22T15:21:26.152Z,2.07
2017-10-22T15:24:52.736Z,1.67
2017-10-22T15:32:03.248Z,1.93
2017-10-22T15:35:37.173Z,1.97
2017-10-22T15:39:12.960Z,2.50
2017-10-22T15:42:49.543Z,1.70
2017-10-22T15:46:18.135Z,2.30
2017-10-22T15:49:45.514Z,3.80
2017-10-22T15:53:28.062Z,2.07
2017-10-22T15:57:02.838Z,1.97
2017-10-22T16:00:43.479Z,1.90
2017-10-22T16:04:14.627Z,2.30
2017-10-22T16:07:40.563Z,1.90
2017-10-22T16:11:08.893Z,2.23
2017-10-22T16:14:34.478Z,2.03
2017-10-22T16:18:02.100Z,2.03
2017-10-22T16:21:29.560Z,2.50
2017-10-22T16:24:55.875Z,2.00
2017-10-22T16:28:21.571Z,2.07
2017-10-22T16:31:52.497Z,2.57
2017-10-22T16:35:19.607Z,2.33
2017-10-22T16:38:46.309Z,2.03
2017-10-22T16:42:13.048Z,2.07
2017-10-22T16:45:39.108Z,1.70
2017-10-22T16:49:04.606Z,2.40
2017-10-22T16:52:36.738Z,2.10
2017-10-22T16:56:06.693Z,1.90
2017-10-22T16:59:36.768Z,1.90
2017-10-22T17:06:35.893Z,3.00
2017-10-22T17:10:07.707Z,1.97
2017-10-22T17:13:35.506Z,1.47
2017-10-22T17:17:03.758Z,2.00
2017-10-22T17:20:40.093Z,1.83
2017-10-22T17:24:08.134Z,1.43
2017-10-22T17:27:35.170Z,2.20
2017-10-22T17:31:11.399Z,1.70
2017-10-22T17:34:38.930Z,1.80
2017-10-22T17:38:09.220Z,2.60
2017-10-22T17:41:41.300Z,2.53
2017-10-22T17:45:09.182Z,1.77
2017-10-22T17:48:46.977Z,1.50
2017-10-22T17:52:13.232Z,2.17
2017-10-22T17:55:41.427Z,1.97
2017-10-22T17:59:28.283Z,2.10
2017-10-22T18:02:57.494Z,1.93
2017-10-22T18:06:25.730Z,1.37
2017-10-22T18:09:55.120Z,1.63
2017-10-22T18:13:22.250Z,2.00
2017-10-22T18:16:55.897Z,2.60
2017-10-22T18:20:26.212Z,2.20
2017-10-22T18:23:52.722Z,2.20
2017-10-22T18:27:23.613Z,2.17
2017-10-22T18:30:52.959Z,2.67
2017-10-22T18:34:20.619Z,2.73
2017-10-22T18:37:55.043Z,2.50
2017-10-22T18:41:21.837Z,1.90
2017-10-22T18:44:58.654Z,2.50
2017-10-22T18:48:28.470Z,1.90
2017-10-22T18:52:04.070Z,2.53
2017-10-22T18:55:37.001Z,2.00
2017-10-22T18:59:04.567Z,2.20
2017-10-22T19:02:33.584Z,1.70
2017-10-22T19:06:01.547Z,1.67
2017-10-22T19:09:31.640Z,1.73
2017-10-22T19:12:58.742Z,1.80
2017-10-22T19:16:23.924Z,1.63
2017-10-22T19:19:54.660Z,2.03
2017-10-22T19:23:21.932Z,2.00
2017-10-22T19:26:51.581Z,1.60
2017-10-22T19:30:18.609Z,1.77
2017-10-22T19:33:49.405Z,2.07
2017-10-22T19:37:18.074Z,1.80
2017-10-22T19:40:44.313Z,2.20
2017-10-22T19:44:13.349Z,1.60
2017-10-22T19:47:39.709Z,1.90
2017-10-22T19:51:05.434Z,1.70
2017-10-22T19:54:50.939Z,1.60
2017-10-22T19:58:16.518Z,2.10
2017-10-22T20:01:42.571Z,1.37
2017-10-22T20:05:10.366Z,1.70
2017-10-22T20:08:37.346Z,2.00
2017-10-22T20:12:03.480Z,1.60
2017-10-22T20:15:32.757Z,2.03
2017-10-22T20:19:00.839Z,2.03
2017-10-22T20:22:27.039Z,1.97
2017-10-22T20:25:56.013Z,1.50
2017-10-22T20:29:24.017Z,1.50
2017-10-22T20:32:51.380Z,1.80
2017-10-22T20:36:22.373Z,2.10
2017-10-22T20:39:47.885Z,1.40
2017-10-22T20:43:13.289Z,1.90
2017-10-22T20:46:40.233Z,1.80
2017-10-22T20:50:07.538Z,1.60
2017-10-22T20:53:33.282Z,2.00
2017-10-22T20:57:10.779Z,1.80
2017-10-22T21:00:36.294Z,2.03
2017-10-22T21:04:01.543Z,2.23
2017-10-22T21:07:31.249Z,1.73
2017-10-22T21:10:56.652Z,1.60
2017-10-22T21:14:21.793Z,1.47
2017-10-22T21:17:48.218Z,1.07
2017-10-22T21:21:13.441Z,1.90
2017-10-22T21:24:38.577Z,1.63
2017-10-22T21:28:09.728Z,1.73
2017-10-22T21:31:34.986Z,1.80
2017-10-22T21:35:01.869Z,1.67
2017-10-22T21:38:27.175Z,1.50
2017-10-22T21:41:52.285Z,1.67
2017-10-22T21:45:17.738Z,1.90
2017-10-22T21:48:42.907Z,1.53
2017-10-22T21:52:08.089Z,1.53
2017-10-22T21:55:33.882Z,1.77
2017-10-22T21:59:00.904Z,1.70
2017-10-22T22:02:26.139Z,1.53
2017-10-22T22:05:52.747Z,1.87
2017-10-22T22:09:18.003Z,1.50
2017-10-22T22:12:50.528Z,1.80
2017-10-22T22:16:15.660Z,1.97
2017-10-22T22:19:41.460Z,1.50
2017-10-22T22:23:07.868Z,2.00
2017-10-22T22:26:33.784Z,1.73
2017-10-22T22:29:59.815Z,1.97
2017-10-22T22:33:24.927Z,1.40
2017-10-22T22:36:49.991Z,1.63
2017-10-22T22:40:15.635Z,2.00
2017-10-22T22:43:40.780Z,1.73
2017-10-22T22:47:06.957Z,1.67
2017-10-22T22:50:32.428Z,1.53
2017-10-22T22:53:58.457Z,1.57
2017-10-22T22:57:24.307Z,1.67
2017-10-22T23:00:56.798Z,1.53
2017-10-22T23:04:21.981Z,1.30
2017-10-22T23:07:47.626Z,1.23
2017-10-22T23:11:13.023Z,1.20
2017-10-22T23:14:38.501Z,1.97
2017-10-22T23:18:03.775Z,1.70
2017-10-22T23:21:30.280Z,2.10
2017-10-22T23:24:55.504Z,1.23
2017-10-22T23:28:22.125Z,1.50
2017-10-22T23:31:47.309Z,1.70
2017-10-22T23:35:13.252Z,1.70
2017-10-22T23:38:48.682Z,1.80
2017-10-22T23:42:13.884Z,1.80
2017-10-22T23:45:40.088Z,1.57
2017-10-22T23:49:09.204Z,1.90
2017-10-22T23:52:34.644Z,1.70
2017-10-22T23:55:59.916Z,1.90
2017-10-22T23:59:31.008Z,1.60
